Bendale, MD

4:33 PM EST on December 02, 2016 (GMT -0500)
Carrollton Manor | | Change Station

Elev 95 ft 39.08 °N, 76.58 °W | Updated 23 seconds ago

Scattered Clouds
Scattered Clouds
47.5 °F
Feels Like 48 °F
N
0.0
Wind Variable Wind from SW
Gusts 0.0 mph

Today
High -- | Low -- °F
--% Chance of Precip.
Yesterday
High -- | Low -- °F
Precip. -- in
Pressure 30.04 in
Visibility 10.0 miles
Clouds Few 5500 ft
Scattered Clouds 11000 ft
Windchill 48 °F
Dew Point 31 °F
Humidity 53%
Rainfall 0.00 in
Snow Depth Not available.
7:07 AM 4:43 PM
Waxing Crescent, 10% visible
METAR KBWI 022054Z 29019G26KT 10SM FEW055 SCT110 08/M02 A3004 RMK AO2 PK WND 29026/2054 SLP172 T00781022 53009
Pressure 30.04 in
Visibility 10.0 miles
Clouds Few 5500 ft
Scattered Clouds 11000 ft
Windchill 48 °F
Dew Point 31 °F
Humidity 53%
Rainfall 0.00 in
Snow Depth Not available.
7:07 AM 4:43 PM
Waxing Crescent, 10% visible
METAR KBWI 022054Z 29019G26KT 10SM FEW055 SCT110 08/M02 A3004 RMK AO2 PK WND 29026/2054 SLP172 T00781022 53009

10-Day Weather Forecast

Almanac

Astronomy

Dec. 02, 2016 Rise Set
Actual Time
Civil Twilight
Nautical Twilight
Astronomical Twilight
Moon
Length of Visible Light
Length of Day
Tomorrow will be .
, % of the Moon is Illuminated

Today's Extremes

State Highs State Lows

Community

WunderPhotos

Upload Photos

1,955,369 photos uploaded!

WunderBlog® & News

Nearby

Air Quality

  Air Quality AQ Index Pollutant
Not available.

Snow Depth

Station Depth Elevation

Earthquake Activity

City Distance Mag. Time & Date
Minimum magnitude displayed is 2.5.

Coastal Water Temperatures

Place Temperature

Stations

Nearby Weather Stations

Station Location Temp. Windchill Dew Point Humidity Wind Precip. Elev Updated Type
                   

Watches & Warnings

There are currently no watches in effect.